createdAt,value
2022-09-05T00:03:02.785Z,98051.40
2022-09-05T00:06:07.472Z,98055.88
2022-09-05T00:09:06.667Z,98052.80
2022-09-05T00:12:01.873Z,98051.66
2022-09-05T00:15:17.835Z,98052.11
2022-09-05T00:24:21.957Z,98047.55
2022-09-05T00:24:36.741Z,98043.54
2022-09-05T00:25:33.055Z,98044.96
2022-09-05T00:28:38.912Z,98038.61
2022-09-05T00:31:55.476Z,98034.27
2022-09-05T00:34:47.540Z,98036.42
2022-09-05T00:37:40.895Z,98032.96
2022-09-05T00:40:43.917Z,98030.95
2022-09-05T00:43:38.218Z,98032.85
2022-09-05T00:46:34.238Z,98035.37
2022-09-05T00:49:40.507Z,98040.13
2022-09-05T00:53:07.006Z,98034.79
2022-09-05T00:56:32.789Z,98039.08
2022-09-05T00:59:57.837Z,98039.45
2022-09-05T01:03:23.290Z,98039.31
2022-09-05T01:06:28.202Z,98040.61
2022-09-05T01:09:33.488Z,98042.29
2022-09-05T01:12:38.664Z,98048.35
2022-09-05T01:15:35.517Z,98048.17
2022-09-05T01:19:06.361Z,98044.44
2022-09-05T01:22:17.911Z,98040.05
2022-09-05T01:25:10.905Z,98038.66
2022-09-05T01:29:13.489Z,98035.80
2022-09-05T01:31:51.176Z,98041.08
2022-09-05T01:35:10.515Z,98042.54
2022-09-05T01:38:20.890Z,98038.27
2022-09-05T01:41:29.777Z,98043.39
2022-09-05T01:44:56.660Z,98038.52
2022-09-05T01:48:31.166Z,98042.04
2022-09-05T01:51:42.790Z,98042.89
2022-09-05T01:55:05.159Z,98043.98
2022-09-05T01:58:07.327Z,98044.98
2022-09-05T02:01:25.140Z,98045.23
2022-09-05T02:04:19.967Z,98042.98
2022-09-05T02:07:31.888Z,98040.48
2022-09-05T02:10:40.711Z,98038.83
2022-09-05T02:13:37.630Z,98038.19
2022-09-05T02:16:47.195Z,98041.13
2022-09-05T02:20:02.676Z,98040.28
2022-09-05T02:23:40.304Z,98037.30
2022-09-05T02:26:27.012Z,98032.72
2022-09-05T02:29:29.352Z,98032.70
2022-09-05T02:32:29.811Z,98034.34
2022-09-05T02:35:50.131Z,98034.70
2022-09-05T02:45:00.122Z,98033.74
2022-09-05T02:45:12.201Z,98030.69
2022-09-05T02:46:02.410Z,98026.88
2022-09-05T02:48:52.394Z,98030.90
2022-09-05T02:57:07.804Z,98031.27
2022-09-05T02:57:40.617Z,98034.30
2022-09-05T02:58:27.652Z,98032.83
2022-09-05T03:01:35.826Z,98039.65
2022-09-05T03:04:55.301Z,98038.48
2022-09-05T03:07:57.928Z,98037.11
2022-09-05T03:10:54.721Z,98038.85
2022-09-05T03:13:54.392Z,98040.19
2022-09-05T03:16:59.954Z,98040.17
2022-09-05T03:19:55.279Z,98040.88
2022-09-05T03:23:33.097Z,98042.36
2022-09-05T03:26:56.937Z,98043.95
2022-09-05T03:30:12.551Z,98042.36
2022-09-05T03:33:22.966Z,98049.98
2022-09-05T03:36:30.778Z,98046.37
2022-09-05T03:39:54.060Z,98052.70
2022-09-05T03:43:18.951Z,98056.35
2022-09-05T03:46:42.615Z,98059.58
2022-09-05T03:51:41.809Z,98065.48
2022-09-05T03:57:13.117Z,98072.52
2022-09-05T03:57:15.327Z,98076.60
2022-09-05T04:00:22.914Z,98075.70
2022-09-05T04:08:06.161Z,98076.30
2022-09-05T04:08:23.832Z,98073.84
2022-09-05T04:09:51.543Z,98073.92
2022-09-05T04:12:55.687Z,98079.80
2022-09-05T04:15:47.100Z,98078.44
2022-09-05T04:18:49.377Z,98079.73
2022-09-05T04:21:55.849Z,98086.86
2022-09-05T04:25:00.793Z,98088.02
2022-09-05T04:27:54.354Z,98092.59
2022-09-05T04:30:56.012Z,98094.90
2022-09-05T04:34:20.499Z,98098.27
2022-09-05T04:37:09.863Z,98096.27
2022-09-05T04:39:56.144Z,98095.39
2022-09-05T04:42:42.671Z,98094.36
2022-09-05T04:45:35.447Z,98091.62
2022-09-05T04:48:28.529Z,98087.23
2022-09-05T04:51:59.901Z,98099.27
2022-09-05T04:55:09.381Z,98104.60
2022-09-05T04:58:08.265Z,98108.65
2022-09-05T05:06:00.542Z,98111.48
2022-09-05T05:06:15.946Z,98110.61
2022-09-05T05:07:31.263Z,98116.09
2022-09-05T05:14:31.345Z,98117.27
2022-09-05T05:17:55.651Z,98119.77
2022-09-05T05:18:08.469Z,98120.90
2022-09-05T05:20:39.819Z,98125.68
2022-09-05T05:23:44.071Z,98131.21
2022-09-05T05:26:55.898Z,98129.65
2022-09-05T05:29:49.236Z,98133.64
2022-09-05T05:32:45.691Z,98132.59
2022-09-05T05:35:41.968Z,98132.90
2022-09-05T05:38:53.883Z,98136.62
2022-09-05T05:42:05.316Z,98137.27
2022-09-05T05:45:31.424Z,98143.92
2022-09-05T05:48:21.844Z,98142.92
2022-09-05T05:51:42.673Z,98142.95
2022-09-05T05:54:51.661Z,98142.13
2022-09-05T05:58:25.007Z,98134.36
2022-09-05T06:01:30.294Z,98138.98
2022-09-05T06:05:14.490Z,98141.86
2022-09-05T06:13:43.055Z,98145.83
2022-09-05T06:14:56.250Z,98148.80
2022-09-05T06:15:42.081Z,98152.55
2022-09-05T06:18:45.583Z,98156.65
2022-09-05T06:22:09.436Z,98160.08
2022-09-05T06:25:17.535Z,98157.52
2022-09-05T06:28:31.091Z,98156.22
2022-09-05T06:31:29.386Z,98156.61
2022-09-05T06:34:33.218Z,98157.59
2022-09-05T06:37:51.433Z,98163.34
2022-09-05T06:41:18.483Z,98161.38
2022-09-05T06:44:26.280Z,98160.02
2022-09-05T06:47:24.150Z,98163.84
2022-09-05T06:50:29.922Z,98168.67
2022-09-05T06:53:44.285Z,98170.51
2022-09-05T06:56:35.481Z,98176.17
2022-09-05T06:59:40.019Z,98178.99
2022-09-05T07:03:00.096Z,98185.95
2022-09-05T07:06:04.348Z,98188.77
2022-09-05T07:09:18.476Z,98185.03
2022-09-05T07:12:39.077Z,98183.60
2022-09-05T07:15:35.921Z,98188.56
2022-09-05T07:18:50.356Z,98186.79
2022-09-05T07:22:18.443Z,98189.95
2022-09-05T07:25:26.632Z,98188.53
2022-09-05T07:28:28.234Z,98188.95
2022-09-05T07:31:37.511Z,98180.22
2022-09-05T07:34:33.149Z,98182.42
2022-09-05T07:37:36.266Z,98183.04
2022-09-05T07:40:25.953Z,98175.80
2022-09-05T07:43:27.456Z,98181.61
2022-09-05T07:46:18.151Z,98190.84
2022-09-05T07:49:18.941Z,98193.34
2022-09-05T07:56:46.687Z,98191.96
2022-09-05T07:57:08.834Z,98192.85
2022-09-05T07:58:58.708Z,98189.71
2022-09-05T08:01:49.128Z,98193.11
2022-09-05T08:04:37.571Z,98193.02
2022-09-05T08:07:49.616Z,98193.48
2022-09-05T08:11:24.576Z,98182.84
2022-09-05T08:14:45.460Z,98184.02
2022-09-05T08:17:35.802Z,98184.31
2022-09-05T08:20:56.737Z,98187.79
2022-09-05T08:24:17.949Z,98189.85
2022-09-05T08:27:25.983Z,98185.34
2022-09-05T08:30:26.751Z,98181.36
2022-09-05T08:33:20.681Z,98183.36
2022-09-05T08:36:41.611Z,98181.05
2022-09-05T08:39:32.324Z,98177.16
2022-09-05T08:42:18.477Z,98180.06
2022-09-05T08:46:40.816Z,98185.58
2022-09-05T08:48:52.405Z,98181.32
2022-09-05T08:51:56.007Z,98178.22
2022-09-05T08:55:14.464Z,98181.22
2022-09-05T08:58:41.928Z,98184.35
2022-09-05T09:02:45.173Z,98184.25
2022-09-05T09:06:14.550Z,98181.30
2022-09-05T09:09:05.770Z,98185.36
2022-09-05T09:12:09.152Z,98184.88
2022-09-05T09:15:03.235Z,98182.73
2022-09-05T09:17:51.017Z,98183.30
2022-09-05T09:21:00.506Z,98181.80
2022-09-05T09:23:58.794Z,98180.97
2022-09-05T09:27:00.456Z,98177.06
2022-09-05T09:29:46.847Z,98175.42
2022-09-05T09:32:45.536Z,98174.09
2022-09-05T09:36:07.959Z,98169.32
2022-09-05T09:39:38.835Z,98159.52
2022-09-05T09:42:45.807Z,98157.21
2022-09-05T09:45:54.028Z,98157.60
2022-09-05T09:48:51.775Z,98157.36
2022-09-05T09:51:53.137Z,98163.27
2022-09-05T09:55:02.268Z,98156.44
2022-09-05T09:58:04.649Z,98151.02
2022-09-05T10:01:01.182Z,98149.77
2022-09-05T10:09:38.400Z,98151.00
2022-09-05T10:10:52.849Z,98151.59
2022-09-05T10:11:37.529Z,98147.88
2022-09-05T10:14:45.136Z,98143.02
2022-09-05T10:17:55.335Z,98142.27
2022-09-05T10:21:17.284Z,98138.30
2022-09-05T10:24:31.238Z,98129.48
2022-09-05T10:27:20.508Z,98126.02
2022-09-05T10:31:17.411Z,98124.48
2022-09-05T10:35:11.148Z,98121.41
2022-09-05T10:36:59.689Z,98121.02
2022-09-05T10:39:51.749Z,98118.30
2022-09-05T10:42:55.518Z,98113.45
2022-09-05T10:45:56.369Z,98108.79
2022-09-05T10:48:54.616Z,98103.34
2022-09-05T10:51:56.340Z,98103.73
2022-09-05T10:55:22.445Z,98099.70
2022-09-05T11:00:58.064Z,98094.70
2022-09-05T11:02:24.966Z,98096.80
2022-09-05T11:05:35.357Z,98088.13
2022-09-05T11:08:26.105Z,98092.16
2022-09-05T11:11:26.038Z,98094.29
2022-09-05T11:14:49.688Z,98092.39
2022-09-05T11:17:38.760Z,98095.95
2022-09-05T11:20:34.816Z,98085.40
2022-09-05T11:23:39.731Z,98082.13
2022-09-05T11:26:30.321Z,98079.95
2022-09-05T11:29:25.209Z,98078.41
2022-09-05T11:39:46.222Z,98075.55
2022-09-05T11:39:51.148Z,98073.07
2022-09-05T11:40:08.821Z,98076.06
2022-09-05T11:42:50.094Z,98061.55
2022-09-05T11:46:13.078Z,98066.64
2022-09-05T11:49:26.276Z,98059.88
2022-09-05T11:52:42.887Z,98057.65
2022-09-05T11:55:38.112Z,98058.95
2022-09-05T11:58:45.895Z,98054.90
2022-09-05T12:01:44.315Z,98057.11
2022-09-05T12:04:31.516Z,98053.70
2022-09-05T12:07:31.737Z,98047.30
2022-09-05T12:10:43.654Z,98045.77
2022-09-05T12:13:43.034Z,98043.46
2022-09-05T12:16:50.769Z,98040.70
2022-09-05T12:19:58.431Z,98041.95
2022-09-05T12:22:59.682Z,98040.09
2022-09-05T12:27:42.786Z,98040.97
2022-09-05T12:29:29.514Z,98031.48
2022-09-05T12:34:23.534Z,98025.81
2022-09-05T12:36:11.959Z,98022.44
2022-09-05T12:41:32.600Z,98022.08
2022-09-05T12:42:40.341Z,98017.80
2022-09-05T12:45:58.509Z,98014.36
2022-09-05T12:48:55.763Z,98008.64
2022-09-05T12:51:54.620Z,98008.60
2022-09-05T12:54:48.532Z,98002.88
2022-09-05T13:02:26.461Z,98000.30
2022-09-05T13:03:10.947Z,98001.08
2022-09-05T13:04:20.212Z,97995.83
2022-09-05T13:07:12.244Z,97992.91
2022-09-05T13:14:37.034Z,97992.77
2022-09-05T13:15:02.796Z,97986.60
2022-09-05T13:16:55.821Z,97984.44
2022-09-05T13:19:51.653Z,97981.24
2022-09-05T13:22:47.925Z,97976.98
2022-09-05T13:25:37.436Z,97975.48
2022-09-05T13:28:35.552Z,97979.31
2022-09-05T13:38:02.867Z,97970.57
2022-09-05T13:38:04.023Z,97978.49
2022-09-05T13:38:48.641Z,97968.41
2022-09-05T13:41:42.494Z,97974.83
2022-09-05T13:44:30.351Z,97974.28
2022-09-05T13:47:46.120Z,97969.11
2022-09-05T13:50:38.456Z,97970.36
2022-09-05T13:53:37.294Z,97974.55
2022-09-05T13:56:35.633Z,97971.63
2022-09-05T13:59:25.306Z,97970.48
2022-09-05T14:06:45.873Z,97969.22
2022-09-05T14:09:52.821Z,97970.04
2022-09-05T14:12:45.164Z,97977.33
2022-09-05T14:15:40.571Z,97977.29
2022-09-05T14:18:59.432Z,97976.91
2022-09-05T14:21:46.345Z,97978.02
2022-09-05T14:24:37.362Z,97982.91
2022-09-05T14:27:31.886Z,97984.61
2022-09-05T14:32:18.838Z,97980.00
2022-09-05T14:37:41.131Z,97987.48
2022-09-05T14:37:51.716Z,97987.15
2022-09-05T14:40:49.990Z,97992.87
2022-09-05T14:43:24.464Z,97990.83
2022-09-05T14:46:00.273Z,97989.65
2022-09-05T14:48:50.268Z,97986.09
2022-09-05T14:51:43.142Z,97984.89
2022-09-05T15:02:39.072Z,97987.86
2022-09-05T15:02:51.035Z,97989.05
2022-09-05T15:03:05.864Z,97985.67
2022-09-05T15:05:50.494Z,97986.73
2022-09-05T15:10:52.514Z,97985.38
2022-09-05T15:12:21.501Z,97985.29
2022-09-05T15:14:14.034Z,97982.50
2022-09-05T15:16:58.336Z,97980.65
2022-09-05T15:20:06.249Z,97979.59
2022-09-05T15:22:44.783Z,97988.39
2022-09-05T15:25:26.149Z,97984.05
2022-09-05T15:27:55.469Z,97991.80
2022-09-05T15:30:35.887Z,97996.12
2022-09-05T15:33:32.087Z,97999.30
2022-09-05T15:36:02.071Z,97993.83
2022-09-05T15:38:55.475Z,97994.30
2022-09-05T15:41:28.846Z,97992.15
2022-09-05T15:44:03.247Z,97991.23
2022-09-05T15:46:49.686Z,97994.05
2022-09-05T15:49:30.550Z,97997.20
2022-09-05T15:52:29.321Z,97997.77
2022-09-05T15:55:28.339Z,98000.55
2022-09-05T15:58:02.113Z,98001.34
2022-09-05T16:00:36.733Z,98002.17
2022-09-05T16:06:10.708Z,98002.17
2022-09-05T16:10:30.048Z,98002.88
2022-09-05T16:10:48.346Z,98001.71
2022-09-05T16:12:18.864Z,98004.48
2022-09-05T16:15:34.466Z,98007.05
2022-09-05T16:23:18.275Z,98002.50
2022-09-05T16:23:29.523Z,97999.81
2022-09-05T16:23:48.374Z,98001.50
2022-09-05T16:26:25.263Z,98005.09
2022-09-05T16:28:54.686Z,98008.23
2022-09-05T16:31:34.900Z,98005.55
2022-09-05T16:34:11.732Z,98008.01
2022-09-05T16:37:08.815Z,98002.07
2022-09-05T16:39:45.778Z,98001.84
2022-09-05T16:42:46.703Z,97996.39
2022-09-05T16:45:31.614Z,97995.68
2022-09-05T16:48:21.528Z,97996.00
2022-09-05T16:50:58.107Z,98001.52
2022-09-05T16:53:44.882Z,98001.98
2022-09-05T16:56:38.064Z,98003.38
2022-09-05T16:59:21.806Z,98008.58
2022-09-05T17:02:29.747Z,98011.94
2022-09-05T17:05:25.530Z,98013.58
2022-09-05T17:08:00.418Z,98011.90
2022-09-05T17:10:58.251Z,98011.86
2022-09-05T17:13:37.056Z,98010.93
2022-09-05T17:16:12.302Z,98011.83
2022-09-05T17:18:42.578Z,98011.86
2022-09-05T17:21:36.581Z,98014.92
2022-09-05T17:29:15.848Z,98018.13
2022-09-05T17:29:39.207Z,98021.14
2022-09-05T17:33:04.674Z,98026.35
2022-09-05T17:36:06.998Z,98029.20
2022-09-05T17:39:13.061Z,98032.48
2022-09-05T17:42:13.897Z,98040.23
2022-09-05T17:44:55.384Z,98040.69
2022-09-05T17:47:46.572Z,98049.80
2022-09-05T17:50:28.025Z,98055.65
2022-09-05T17:53:26.536Z,98057.75
2022-09-05T17:55:56.651Z,98057.61
2022-09-05T17:58:49.206Z,98056.48
2022-09-05T18:01:28.453Z,98060.60
2022-09-05T18:04:08.555Z,98061.77
2022-09-05T18:06:59.154Z,98057.77
2022-09-05T18:09:37.427Z,98058.35
2022-09-05T18:12:31.601Z,98057.17
2022-09-05T18:15:07.610Z,98061.23
2022-09-05T18:17:38.179Z,98066.23
2022-09-05T18:20:16.921Z,98071.20
2022-09-05T18:26:25.085Z,98074.63
2022-09-05T18:29:14.840Z,98073.31
2022-09-05T18:31:45.714Z,98072.28
2022-09-05T18:34:20.654Z,98073.53
2022-09-05T18:36:56.044Z,98080.88
2022-09-05T18:39:29.464Z,98077.27
2022-09-05T18:42:26.380Z,98072.63
2022-09-05T18:45:28.319Z,98071.38
2022-09-05T18:48:02.154Z,98075.19
2022-09-05T18:50:37.559Z,98074.96
2022-09-05T18:53:13.242Z,98077.48
2022-09-05T18:56:09.904Z,98073.75
2022-09-05T18:58:55.538Z,98067.58
2022-09-05T19:02:03.277Z,98070.31
2022-09-05T19:04:40.522Z,98071.61
2022-09-05T19:07:28.396Z,98079.23
2022-09-05T19:10:35.240Z,98077.45
2022-09-05T19:13:13.445Z,98075.68
2022-09-05T19:16:02.272Z,98073.44
2022-09-05T19:19:10.048Z,98069.55
2022-09-05T19:22:33.153Z,98066.73
2022-09-05T19:24:51.246Z,98065.05
2022-09-05T19:29:50.239Z,98066.61
2022-09-05T19:36:53.752Z,98057.31
2022-09-05T19:37:04.774Z,98057.06
2022-09-05T19:37:14.268Z,98055.29
2022-09-05T19:38:55.133Z,98058.13
2022-09-05T19:47:42.801Z,98061.20
2022-09-05T19:47:42.805Z,98061.64
2022-09-05T19:50:31.452Z,98059.50
2022-09-05T19:53:08.699Z,98057.91
2022-09-05T19:55:39.029Z,98056.84
2022-09-05T19:58:19.870Z,98052.74
2022-09-05T20:01:02.374Z,98051.80
2022-09-05T20:03:38.972Z,98052.29
2022-09-05T20:06:26.723Z,98048.27
2022-09-05T20:09:14.891Z,98047.14
2022-09-05T20:11:49.955Z,98046.38
2022-09-05T20:14:32.022Z,98046.77
2022-09-05T20:17:21.173Z,98046.63
2022-09-05T20:20:03.392Z,98045.86
2022-09-05T20:22:47.804Z,98045.52
2022-09-05T20:25:35.039Z,98043.87
2022-09-05T20:28:10.108Z,98045.78
2022-09-05T20:30:48.618Z,98040.98
2022-09-05T20:33:27.438Z,98043.23
2022-09-05T20:43:10.655Z,98038.31
2022-09-05T20:43:17.115Z,98039.02
2022-09-05T20:43:23.235Z,98044.17
2022-09-05T20:44:38.058Z,98053.41
2022-09-05T20:54:02.301Z,98056.39
2022-09-05T20:54:13.197Z,98053.42
2022-09-05T20:54:14.954Z,98052.39
2022-09-05T20:56:23.995Z,98061.67
2022-09-05T20:58:58.940Z,98069.80
2022-09-05T21:01:32.819Z,98064.15
2022-09-05T21:04:04.590Z,98067.21
2022-09-05T21:06:33.826Z,98062.94
2022-09-05T21:09:25.279Z,98063.48
2022-09-05T21:11:56.716Z,98066.48
2022-09-05T21:14:29.448Z,98071.48
2022-09-05T21:17:14.891Z,98075.29
2022-09-05T21:19:54.073Z,98074.96
2022-09-05T21:22:45.604Z,98073.85
2022-09-05T21:25:25.009Z,98072.91
2022-09-05T21:28:22.278Z,98075.33
2022-09-05T21:30:52.049Z,98077.76
2022-09-05T21:33:33.143Z,98075.95
2022-09-05T21:36:16.089Z,98070.45
2022-09-05T21:38:45.292Z,98066.67
2022-09-05T21:41:17.061Z,98065.56
2022-09-05T21:47:34.127Z,98054.45
2022-09-05T21:47:49.492Z,98051.88
2022-09-05T21:49:26.535Z,98052.01
2022-09-05T21:51:56.235Z,98054.98
2022-09-05T21:59:20.864Z,98056.97
2022-09-05T21:59:27.092Z,98055.30
2022-09-05T22:00:16.655Z,98052.16
2022-09-05T22:02:49.675Z,98049.38
2022-09-05T22:05:21.924Z,98044.90
2022-09-05T22:07:53.747Z,98043.46
2022-09-05T22:10:23.487Z,98044.00
2022-09-05T22:13:13.503Z,98043.40
2022-09-05T22:15:42.596Z,98040.50
2022-09-05T22:18:17.498Z,98040.64
2022-09-05T22:21:33.504Z,98040.61
2022-09-05T22:23:45.841Z,98038.08
2022-09-05T22:26:17.643Z,98038.70
2022-09-05T22:28:49.854Z,98036.29
2022-09-05T22:31:20.234Z,98035.34
2022-09-05T22:33:50.955Z,98036.17
2022-09-05T22:36:22.141Z,98040.58
2022-09-05T22:38:53.187Z,98038.34
2022-09-05T22:41:31.168Z,98039.11
2022-09-05T22:44:01.707Z,98034.27
2022-09-05T22:46:32.018Z,98033.27
2022-09-05T22:49:01.741Z,98032.83
2022-09-05T22:51:31.365Z,98029.31
2022-09-05T22:54:01.055Z,98031.39
2022-09-05T22:56:36.754Z,98031.11
2022-09-05T22:59:06.436Z,98031.82
2022-09-05T23:01:36.275Z,98030.11
2022-09-05T23:04:05.669Z,98027.67
2022-09-05T23:06:35.551Z,98029.73
2022-09-05T23:09:05.451Z,98024.69
2022-09-05T23:11:34.941Z,98023.80
2022-09-05T23:14:04.383Z,98022.83
2022-09-05T23:16:33.888Z,98021.81
2022-09-05T23:19:03.271Z,98016.45
2022-09-05T23:21:32.582Z,98016.20
2022-09-05T23:24:02.350Z,98017.28
2022-09-05T23:26:32.511Z,98017.32
2022-09-05T23:29:02.810Z,98015.27
2022-09-05T23:31:33.866Z,98010.73
2022-09-05T23:34:03.367Z,98007.88
2022-09-05T23:36:33.598Z,98006.86
2022-09-05T23:39:02.883Z,98006.76
2022-09-05T23:41:32.718Z,98007.67
2022-09-05T23:44:02.578Z,98006.79
2022-09-05T23:46:33.329Z,98010.35
2022-09-05T23:49:03.711Z,98006.36
2022-09-05T23:51:34.275Z,98007.44
2022-09-05T23:54:04.338Z,98005.29
2022-09-05T23:56:33.959Z,98005.02
2022-09-05T23:59:04.675Z,98001.70
